Queen Isabella — A8IE2 — position and weather

sailwx.info

Track history (hours):
 
Tides and Currents Weather Stations Pressure Air Temp Water Temp Dewpoint Dewpoint Depression Visibility Wind Speed Wind Dir Waves Ship Positions

Queen Isabella

Last reported at 2016-Jul-25 09:32 UTC. Time now 2016-Jul-26 04:34 UTC.
Position N 35°58' W 005°32'.

Length 131 m; draft 6 m.

Type: Ship. MMSI: 636090959.

Date/timePositionNaut miles runAvg speedWind from/ knotsBaromVisibWave heightAir tempDewpointWater temp
2016-Jul-25 09:32N 35°58' W 005°32'1010.2
2016-Jul-25 08:33N 36°01' W 005°20'19211.1
2016-Jul-24 15:09N 36°55' W 001°31'4412.1
2016-Jul-24 11:32N 37°23' W 000°49'1611.7
2016-Jul-24 10:10N 37°34' W 000°34'711.5
2016-Jul-24 09:33N 37°39' W 000°29'1211.4
2016-Jul-24 08:29N 37°50' W 000°20'1111.5
2016-Jul-24 07:33N 37°59' W 000°13'99 9.8
2016-Jul-23 21:24N 39°38' W 000°12'  
2016-Jul-20 01:30N 38°43' E 000°27'1111.8
2016-Jul-20 00:33N 38°32' E 000°23'1312.1
2016-Jul-19 23:27N 38°19' E 000°20'1112.3
2016-Jul-19 22:33N 38°08' E 000°17'1212.2
2016-Jul-19 21:33N 37°57' E 000°14'1212.2
2016-Jul-19 20:33N 37°45' E 000°11'1211.7
2016-Jul-19 19:33N 37°33' E 000°08'1211.8
2016-Jul-19 18:33N 37°22' E 000°05'1211.9
2016-Jul-19 17:33N 37°10' E 000°03'1311.9
2016-Jul-19 16:30N 36°57' W 000°00'1111.4
2016-Jul-19 15:32N 36°47' W 000°03'45 1.4
2016-Jul-18 07:20N 36°07' W 000°29'1113.2
2016-Jul-18 06:32N 36°15' W 000°37'3 2.8
2016-Jul-18 05:33N 36°17' W 000°40'2 1.8
2016-Jul-18 04:33N 36°16' W 000°38'2 1.8
2016-Jul-18 03:33N 36°15' W 000°36'4 2.1
2016-Jul-18 01:32N 36°13' W 000°32'24 1.2
2016-Jul-17 06:21N 36°01' W 000°06'9 4.8
2016-Jul-17 04:32N 36°08' W 000°13'5112.3
2016-Jul-17 00:24N 36°58' W 000°02'  
Track history (hours):
 
Tides and Currents Weather Stations Pressure Air Temp Water Temp Dewpoint Dewpoint Depression Visibility Wind Speed Wind Dir Waves Ship Positions

Queen Isabella

Last reported at 2016-Jul-25 09:32 UTC. Time now 2016-Jul-26 04:34 UTC.
Position N 35°58' W 005°32'.

Length 131 m; draft 6 m.

Type: Ship. MMSI: 636090959.

Date/timePositionNaut miles runAvg speedWind from/ knotsBaromVisibWave heightAir tempDewpointWater temp
2016-Jul-25 09:32N 35°58' W 005°32'1010.2
2016-Jul-25 08:33N 36°01' W 005°20'19211.1
2016-Jul-24 15:09N 36°55' W 001°31'4412.1
2016-Jul-24 11:32N 37°23' W 000°49'1611.7
2016-Jul-24 10:10N 37°34' W 000°34'711.5
2016-Jul-24 09:33N 37°39' W 000°29'1211.4
2016-Jul-24 08:29N 37°50' W 000°20'1111.5
2016-Jul-24 07:33N 37°59' W 000°13'99 9.8
2016-Jul-23 21:24N 39°38' W 000°12'  
2016-Jul-20 01:30N 38°43' E 000°27'1111.8
2016-Jul-20 00:33N 38°32' E 000°23'1312.1
2016-Jul-19 23:27N 38°19' E 000°20'1112.3
2016-Jul-19 22:33N 38°08' E 000°17'1212.2
2016-Jul-19 21:33N 37°57' E 000°14'1212.2
2016-Jul-19 20:33N 37°45' E 000°11'1211.7
2016-Jul-19 19:33N 37°33' E 000°08'1211.8
2016-Jul-19 18:33N 37°22' E 000°05'1211.9
2016-Jul-19 17:33N 37°10' E 000°03'1311.9
2016-Jul-19 16:30N 36°57' W 000°00'1111.4
2016-Jul-19 15:32N 36°47' W 000°03'45 1.4
2016-Jul-18 07:20N 36°07' W 000°29'1113.2
2016-Jul-18 06:32N 36°15' W 000°37'3 2.8
2016-Jul-18 05:33N 36°17' W 000°40'2 1.8
2016-Jul-18 04:33N 36°16' W 000°38'2 1.8
2016-Jul-18 03:33N 36°15' W 000°36'4 2.1
2016-Jul-18 01:32N 36°13' W 000°32'24 1.2
2016-Jul-17 06:21N 36°01' W 000°06'9 4.8
2016-Jul-17 04:32N 36°08' W 000°13'5112.3
2016-Jul-17 00:24N 36°58' W 000°02'  

Dump ship's entire track history